createdAt,value
2019-02-05T00:01:09.707Z,22.50
2019-02-05T00:03:38.936Z,23.73
2019-02-05T00:06:08.198Z,23.73
2019-02-05T00:08:37.729Z,24.90
2019-02-05T00:11:06.909Z,23.13
2019-02-05T00:13:36.058Z,26.47
2019-02-05T00:16:06.015Z,25.90
2019-02-05T00:18:35.765Z,24.07
2019-02-05T00:21:05.200Z,25.20
2019-02-05T00:23:34.917Z,22.23
2019-02-05T00:26:06.456Z,31.10
2019-02-05T00:28:34.988Z,22.23
2019-02-05T00:31:04.632Z,23.87
2019-02-05T00:33:34.087Z,24.07
2019-02-05T00:36:03.273Z,22.17
2019-02-05T00:38:32.704Z,24.60
2019-02-05T00:41:01.891Z,23.43
2019-02-05T00:43:31.112Z,23.57
2019-02-05T00:46:00.344Z,20.60
2019-02-05T00:48:29.549Z,22.07
2019-02-05T00:50:59.109Z,19.63
2019-02-05T00:53:28.450Z,23.17
2019-02-05T00:55:57.708Z,21.73
2019-02-05T00:58:26.873Z,22.50
2019-02-05T01:00:56.096Z,21.50
2019-02-05T01:03:25.337Z,23.77
2019-02-05T01:05:54.480Z,22.00
2019-02-05T01:08:24.225Z,24.23
2019-02-05T01:10:53.451Z,22.60
2019-02-05T01:13:22.624Z,27.93
2019-02-05T01:15:51.885Z,22.27
2019-02-05T01:18:21.046Z,23.37
2019-02-05T01:20:50.212Z,20.47
2019-02-05T01:23:19.665Z,21.57
2019-02-05T01:25:48.868Z,24.80
2019-02-05T01:28:18.147Z,26.17
2019-02-05T01:30:47.442Z,22.53
2019-02-05T01:33:16.599Z,24.83
2019-02-05T01:35:45.750Z,22.90
2019-02-05T01:38:14.956Z,22.20
2019-02-05T01:40:44.153Z,24.17
2019-02-05T01:43:13.328Z,22.73
2019-02-05T01:45:42.476Z,26.67
2019-02-05T01:48:11.633Z,22.00
2019-02-05T01:50:40.901Z,24.43
2019-02-05T01:53:10.154Z,24.53
2019-02-05T01:55:39.321Z,25.90
2019-02-05T01:58:08.455Z,23.27
2019-02-05T02:00:39.260Z,21.53
2019-02-05T02:03:08.589Z,25.80
2019-02-05T02:05:37.794Z,21.23
2019-02-05T02:08:07.400Z,23.33
2019-02-05T02:10:36.984Z,22.80
2019-02-05T02:13:06.208Z,21.47
2019-02-05T02:15:35.361Z,22.33
2019-02-05T02:18:04.796Z,23.43
2019-02-05T02:20:33.976Z,23.27
2019-02-05T02:23:03.131Z,23.47
2019-02-05T02:25:32.426Z,25.90
2019-02-05T02:28:01.651Z,22.73
2019-02-05T02:30:33.726Z,24.23
2019-02-05T02:33:02.868Z,22.30
2019-02-05T02:35:32.330Z,23.70
2019-02-05T02:38:01.487Z,22.03
2019-02-05T02:40:30.785Z,22.77
2019-02-05T02:43:00.046Z,24.10
2019-02-05T02:45:29.211Z,23.43
2019-02-05T02:47:58.528Z,24.57
2019-02-05T02:50:28.173Z,23.90
2019-02-05T02:52:57.419Z,25.30
2019-02-05T02:55:26.569Z,23.70
2019-02-05T02:57:55.828Z,25.80
2019-02-05T03:00:25.076Z,26.43
2019-02-05T03:02:54.510Z,25.73
2019-02-05T03:05:24.425Z,24.60
2019-02-05T03:07:53.927Z,25.13
2019-02-05T03:10:28.220Z,25.30
2019-02-05T03:12:57.991Z,24.07
2019-02-05T03:15:27.412Z,26.13
2019-02-05T03:17:56.790Z,26.10
2019-02-05T03:20:26.232Z,24.77
2019-02-05T03:22:55.783Z,24.77
2019-02-05T03:25:25.662Z,24.77
2019-02-05T03:27:55.196Z,21.23
2019-02-05T03:30:24.849Z,23.70
2019-02-05T03:32:55.180Z,23.87
2019-02-05T03:35:24.943Z,27.13
2019-02-05T03:37:54.346Z,23.47
2019-02-05T03:41:08.737Z,25.80
2019-02-05T03:43:41.527Z,24.23
2019-02-05T03:46:16.057Z,23.73
2019-02-05T03:48:47.952Z,25.57
2019-02-05T03:51:52.665Z,24.43
2019-02-05T03:54:53.009Z,21.97
2019-02-05T03:58:09.134Z,21.63
2019-02-05T04:01:22.261Z,24.63
2019-02-05T04:04:09.634Z,23.27
2019-02-05T04:07:07.833Z,24.83
2019-02-05T04:10:07.432Z,25.30
2019-02-05T04:13:04.350Z,24.60
2019-02-05T04:16:19.755Z,22.57
2019-02-05T04:19:33.367Z,21.83
2019-02-05T04:22:26.952Z,23.43
2019-02-05T04:25:38.354Z,26.77
2019-02-05T04:28:59.662Z,23.97
2019-02-05T04:31:55.207Z,21.83
2019-02-05T04:35:01.338Z,23.50
2019-02-05T04:37:47.972Z,22.47
2019-02-05T04:40:43.576Z,25.23
2019-02-05T04:44:00.775Z,25.50
2019-02-05T04:47:10.019Z,23.53
2019-02-05T04:50:08.076Z,22.53
2019-02-05T04:53:21.278Z,22.23
2019-02-05T04:56:25.692Z,23.77
2019-02-05T04:59:26.857Z,23.73
2019-02-05T05:02:41.421Z,26.80
2019-02-05T05:05:48.573Z,26.07
2019-02-05T05:08:40.254Z,23.97
2019-02-05T05:11:09.442Z,22.10
2019-02-05T05:13:38.719Z,26.17
2019-02-05T05:16:07.969Z,42.27
2019-02-05T05:18:37.525Z,38.33
2019-02-05T05:21:06.683Z,28.37
2019-02-05T05:23:35.928Z,27.90
2019-02-05T05:26:05.311Z,29.07
2019-02-05T05:28:34.831Z,28.10
2019-02-05T05:31:04.190Z,31.23
2019-02-05T05:33:33.489Z,30.83
2019-02-05T05:36:02.737Z,25.37
2019-02-05T05:38:31.939Z,26.37
2019-02-05T05:41:01.160Z,27.80
2019-02-05T05:43:30.511Z,28.70
2019-02-05T05:45:59.718Z,42.30
2019-02-05T05:48:28.884Z,39.70
2019-02-05T05:50:58.072Z,29.13
2019-02-05T05:53:27.238Z,30.23
2019-02-05T05:55:56.480Z,24.93
2019-02-05T05:58:25.727Z,25.63
2019-02-05T06:00:55.410Z,25.10
2019-02-05T06:03:24.663Z,30.05
2019-02-05T06:05:54.057Z,158.10
2019-02-05T06:08:23.621Z,71.37
2019-02-05T06:10:53.061Z,31.70
2019-02-05T06:13:22.339Z,30.93
2019-02-05T06:15:51.505Z,28.43
2019-02-05T06:18:20.936Z,30.20
2019-02-05T06:20:50.304Z,27.60
2019-02-05T06:23:19.525Z,28.50
2019-02-05T06:25:48.675Z,25.03
2019-02-05T06:28:18.051Z,25.73
2019-02-05T06:30:47.229Z,26.30
2019-02-05T06:33:16.876Z,27.50
2019-02-05T06:35:46.019Z,25.43
2019-02-05T06:38:15.280Z,23.83
2019-02-05T06:40:44.444Z,26.03
2019-02-05T06:43:13.632Z,25.43
2019-02-05T06:45:42.817Z,24.33
2019-02-05T06:48:11.961Z,27.37
2019-02-05T06:50:41.130Z,37.67
2019-02-05T06:53:10.449Z,113.80
2019-02-05T06:55:39.618Z,33.23
2019-02-05T06:58:08.786Z,29.53
2019-02-05T07:00:38.217Z,26.43
2019-02-05T07:03:07.369Z,25.70
2019-02-05T07:05:36.889Z,27.13
2019-02-05T07:08:06.168Z,27.30
2019-02-05T07:10:35.296Z,25.70
2019-02-05T07:13:04.574Z,27.57
2019-02-05T07:15:33.944Z,28.10
2019-02-05T07:18:03.064Z,27.27
2019-02-05T07:20:32.692Z,27.97
2019-02-05T07:23:01.823Z,29.17
2019-02-05T07:25:31.048Z,29.10
2019-02-05T07:28:00.308Z,30.80
2019-02-05T07:30:29.701Z,32.40
2019-02-05T07:32:58.865Z,29.37
2019-02-05T07:35:28.068Z,27.40
2019-02-05T07:37:57.788Z,31.40
2019-02-05T07:40:26.985Z,28.27
2019-02-05T07:42:57.435Z,29.33
2019-02-05T07:45:26.611Z,29.77
2019-02-05T07:47:55.911Z,32.00
2019-02-05T07:50:26.135Z,30.33
2019-02-05T07:52:55.683Z,30.93
2019-02-05T07:55:25.203Z,29.60
2019-02-05T07:57:54.345Z,31.83
2019-02-05T08:00:25.703Z,42.30
2019-02-05T08:02:54.942Z,35.30
2019-02-05T08:05:27.383Z,30.30
2019-02-05T08:07:56.604Z,29.20
2019-02-05T08:10:25.831Z,32.40
2019-02-05T08:12:55.101Z,35.40
2019-02-05T08:15:29.155Z,32.30
2019-02-05T08:17:58.503Z,31.47
2019-02-05T08:20:28.119Z,35.23
2019-02-05T08:22:57.279Z,37.00
2019-02-05T08:25:26.617Z,32.27
2019-02-05T08:27:56.739Z,32.77
2019-02-05T08:30:37.923Z,33.57
2019-02-05T08:33:07.284Z,32.90
2019-02-05T08:35:36.595Z,34.50
2019-02-05T08:38:06.444Z,35.33
2019-02-05T08:40:35.757Z,36.43
2019-02-05T08:43:06.314Z,43.13
2019-02-05T08:45:36.095Z,38.13
2019-02-05T08:48:06.359Z,41.90
2019-02-05T08:50:35.762Z,33.07
2019-02-05T08:53:05.119Z,42.50
2019-02-05T08:55:34.228Z,38.27
2019-02-05T08:58:05.649Z,42.17
2019-02-05T09:00:36.769Z,35.03
2019-02-05T09:03:07.560Z,34.13
2019-02-05T09:05:37.108Z,33.63
2019-02-05T09:08:06.503Z,32.90
2019-02-05T09:10:36.475Z,34.13
2019-02-05T09:13:06.065Z,31.87
2019-02-05T09:15:35.284Z,29.27
2019-02-05T09:18:05.173Z,62.10
2019-02-05T09:20:34.410Z,33.87
2019-02-05T09:23:03.625Z,29.87
2019-02-05T09:25:32.857Z,26.80
2019-02-05T09:28:02.052Z,28.80
2019-02-05T09:30:33.075Z,25.40
2019-02-05T09:33:05.181Z,26.93
2019-02-05T09:35:34.336Z,28.73
2019-02-05T09:38:03.775Z,26.37
2019-02-05T09:40:33.385Z,28.10
2019-02-05T09:43:02.625Z,26.70
2019-02-05T09:45:32.545Z,27.67
2019-02-05T09:48:02.087Z,23.97
2019-02-05T09:50:43.753Z,22.67
2019-02-05T09:53:02.394Z,23.77
2019-02-05T09:55:31.904Z,26.87
2019-02-05T09:58:01.932Z,21.70
2019-02-05T10:00:36.549Z,24.03
2019-02-05T10:03:07.439Z,24.43
2019-02-05T10:05:37.260Z,26.20
2019-02-05T10:08:06.636Z,21.90
2019-02-05T10:10:35.878Z,24.47
2019-02-05T10:13:05.744Z,23.50
2019-02-05T10:15:36.624Z,22.97
2019-02-05T10:18:07.689Z,24.03
2019-02-05T10:20:36.884Z,24.63
2019-02-05T10:23:07.988Z,24.97
2019-02-05T10:25:37.620Z,26.63
2019-02-05T10:28:07.410Z,22.17
2019-02-05T10:30:39.109Z,23.53
2019-02-05T10:33:08.888Z,22.93
2019-02-05T10:35:38.088Z,25.00
2019-02-05T10:38:07.740Z,32.50
2019-02-05T10:40:37.196Z,24.70
2019-02-05T10:43:07.653Z,25.73
2019-02-05T10:45:37.138Z,23.77
2019-02-05T10:48:08.320Z,22.47
2019-02-05T10:50:37.872Z,22.67
2019-02-05T10:53:07.031Z,22.83
2019-02-05T10:55:36.179Z,24.33
2019-02-05T10:58:06.352Z,21.03
2019-02-05T11:00:35.839Z,23.03
2019-02-05T11:03:06.897Z,25.83
2019-02-05T11:05:36.139Z,21.83
2019-02-05T11:08:06.098Z,22.30
2019-02-05T11:10:35.551Z,22.93
2019-02-05T11:13:05.940Z,22.53
2019-02-05T11:15:35.211Z,23.13
2019-02-05T11:18:06.589Z,23.40
2019-02-05T11:20:35.698Z,22.13
2019-02-05T11:23:05.824Z,19.87
2019-02-05T11:25:35.579Z,20.13
2019-02-05T11:28:05.265Z,22.10
2019-02-05T11:30:36.849Z,22.87
2019-02-05T11:33:06.057Z,23.07
2019-02-05T11:35:35.584Z,22.13
2019-02-05T11:38:05.768Z,22.50
2019-02-05T11:40:35.528Z,19.90
2019-02-05T11:43:04.876Z,21.63
2019-02-05T11:45:53.091Z,22.10
2019-02-05T11:48:22.517Z,22.87
2019-02-05T11:50:51.712Z,21.52
2019-02-05T11:53:20.877Z,20.65
2019-02-05T11:55:50.159Z,19.80
2019-02-05T11:58:19.352Z,18.92
2019-02-05T12:01:11.277Z,18.77
2019-02-05T12:03:40.484Z,17.52
2019-02-05T12:06:09.656Z,13.13
2019-02-05T12:08:39.213Z,13.95
2019-02-05T12:11:08.645Z,13.95
2019-02-05T12:13:37.783Z,14.40
2019-02-05T12:16:07.304Z,13.90
2019-02-05T12:18:36.502Z,15.10
2019-02-05T12:21:06.121Z,12.70
2019-02-05T12:23:35.367Z,14.00
2019-02-05T12:26:04.553Z,14.70
2019-02-05T12:28:33.753Z,13.78
2019-02-05T12:31:02.884Z,13.40
2019-02-05T12:33:32.112Z,15.23
2019-02-05T12:36:01.440Z,15.73
2019-02-05T12:38:30.660Z,16.77
2019-02-05T12:40:59.818Z,15.08
2019-02-05T12:43:29.208Z,13.60
2019-02-05T12:45:58.408Z,13.50
2019-02-05T12:48:27.967Z,13.80
2019-02-05T12:50:57.155Z,16.02
2019-02-05T12:53:26.412Z,14.53
2019-02-05T12:55:55.539Z,11.97
2019-02-05T12:58:24.697Z,11.83
2019-02-05T13:00:59.412Z,11.18
2019-02-05T13:03:25.892Z,13.48
2019-02-05T13:05:55.108Z,12.20
2019-02-05T13:08:24.246Z,11.65
2019-02-05T13:10:53.850Z,9.48
2019-02-05T13:13:22.981Z,8.65
2019-02-05T13:15:52.121Z,9.73
2019-02-05T13:18:21.756Z,9.50
2019-02-05T13:20:51.030Z,10.10
2019-02-05T13:23:20.192Z,10.08
2019-02-05T13:25:49.322Z,5.92
2019-02-05T13:28:18.479Z,4.33
2019-02-05T13:30:47.688Z,4.62
2019-02-05T13:33:17.584Z,5.43
2019-02-05T13:35:47.081Z,6.50
2019-02-05T13:38:16.203Z,6.10
2019-02-05T13:40:45.483Z,7.50
2019-02-05T13:43:15.015Z,9.63
2019-02-05T13:45:44.729Z,11.13
2019-02-05T13:48:14.161Z,14.97
2019-02-05T13:50:43.659Z,14.13
2019-02-05T13:53:13.252Z,11.97
2019-02-05T13:55:44.584Z,12.83
2019-02-05T13:58:14.731Z,13.73
2019-02-05T14:00:49.319Z,11.70
2019-02-05T14:03:18.652Z,12.40
2019-02-05T14:05:48.318Z,13.30
2019-02-05T14:08:17.544Z,11.10
2019-02-05T14:10:47.788Z,12.57
2019-02-05T14:13:17.033Z,13.23
2019-02-05T14:15:48.682Z,11.53
2019-02-05T14:18:17.840Z,13.40
2019-02-05T14:20:47.016Z,15.37
2019-02-05T14:23:16.150Z,13.23
2019-02-05T14:25:45.310Z,11.70
2019-02-05T14:28:14.479Z,14.00
2019-02-05T14:30:49.608Z,14.33
2019-02-05T14:33:18.809Z,12.53
2019-02-05T14:35:48.049Z,14.93
2019-02-05T14:38:17.520Z,19.07
2019-02-05T14:40:46.664Z,13.87
2019-02-05T14:43:15.865Z,14.63
2019-02-05T14:45:45.838Z,34.63
2019-02-05T14:48:15.176Z,20.70
2019-02-05T14:50:45.601Z,21.17
2019-02-05T14:53:15.239Z,16.70
2019-02-05T14:55:44.369Z,15.57
2019-02-05T14:58:15.342Z,14.40
2019-02-05T15:00:44.712Z,15.50
2019-02-05T15:03:14.881Z,16.13
2019-02-05T15:05:45.295Z,16.30
2019-02-05T15:08:15.935Z,15.57
2019-02-05T15:10:45.136Z,15.10
2019-02-05T15:13:16.020Z,16.77
2019-02-05T15:15:45.848Z,15.13
2019-02-05T15:18:17.528Z,14.33
2019-02-05T15:20:48.492Z,17.17
2019-02-05T15:23:17.669Z,16.53
2019-02-05T15:25:46.987Z,19.90
2019-02-05T15:28:16.119Z,15.90
2019-02-05T15:30:45.658Z,15.67
2019-02-05T15:33:41.966Z,15.93
2019-02-05T15:36:22.141Z,16.53
2019-02-05T15:38:51.300Z,14.77
2019-02-05T15:41:20.456Z,14.23
2019-02-05T15:43:49.769Z,13.00
2019-02-05T15:46:18.935Z,15.67
2019-02-05T15:48:48.532Z,13.67
2019-02-05T15:51:17.663Z,13.80
2019-02-05T15:53:47.107Z,12.53
2019-02-05T15:56:16.456Z,13.00
2019-02-05T15:58:45.618Z,10.90
2019-02-05T16:01:14.754Z,13.47
2019-02-05T16:03:44.407Z,11.30
2019-02-05T16:06:14.161Z,16.53
2019-02-05T16:08:43.416Z,18.83
2019-02-05T16:11:12.580Z,17.27
2019-02-05T16:13:41.736Z,25.67
2019-02-05T16:16:10.908Z,11.27
2019-02-05T16:18:40.461Z,11.10
2019-02-05T16:21:09.730Z,10.00
2019-02-05T16:23:38.955Z,8.80
2019-02-05T16:26:08.260Z,10.00
2019-02-05T16:28:37.639Z,9.13
2019-02-05T16:31:07.013Z,10.10
2019-02-05T16:33:36.202Z,7.63
2019-02-05T16:36:06.071Z,9.23
2019-02-05T16:38:35.217Z,9.63
2019-02-05T16:41:04.554Z,9.87
2019-02-05T16:43:33.859Z,10.77
2019-02-05T16:46:03.012Z,10.43
2019-02-05T16:48:32.208Z,10.87
2019-02-05T16:51:01.418Z,12.87
2019-02-05T16:53:30.633Z,14.40
2019-02-05T16:55:59.891Z,12.87
2019-02-05T16:58:29.090Z,13.73
2019-02-05T17:00:58.271Z,13.03
2019-02-05T17:03:27.425Z,12.60
2019-02-05T17:05:56.547Z,13.70
2019-02-05T17:08:25.800Z,14.30
2019-02-05T17:10:55.193Z,10.37
2019-02-05T17:13:24.409Z,9.70
2019-02-05T17:15:53.538Z,10.33
2019-02-05T17:18:24.018Z,12.87
2019-02-05T17:20:53.411Z,18.10
2019-02-05T17:23:23.010Z,9.93
2019-02-05T17:25:52.181Z,12.37
2019-02-05T17:28:21.342Z,11.13
2019-02-05T17:30:50.497Z,13.43
2019-02-05T17:33:19.639Z,15.43
2019-02-05T17:35:49.245Z,14.50
2019-02-05T17:38:18.368Z,12.40
2019-02-05T17:40:47.604Z,12.23
2019-02-05T17:43:16.926Z,12.57
2019-02-05T17:45:46.137Z,15.87
2019-02-05T17:48:17.801Z,14.00
2019-02-05T17:50:46.955Z,13.43
2019-02-05T17:53:16.164Z,15.87
2019-02-05T17:55:45.301Z,14.77
2019-02-05T17:58:14.509Z,13.13
2019-02-05T18:00:49.570Z,17.37
2019-02-05T18:03:38.395Z,14.70
2019-02-05T18:06:08.170Z,18.60
2019-02-05T18:08:37.325Z,17.93
2019-02-05T18:11:07.812Z,47.70
2019-02-05T18:13:36.932Z,64.07
2019-02-05T18:16:13.684Z,27.73
2019-02-05T18:18:42.813Z,24.40
2019-02-05T18:21:12.077Z,18.70
2019-02-05T18:23:41.292Z,17.60
2019-02-05T18:26:10.465Z,19.50
2019-02-05T18:28:39.921Z,16.93
2019-02-05T18:31:09.502Z,19.20
2019-02-05T18:33:38.613Z,22.10
2019-02-05T18:36:08.110Z,19.37
2019-02-05T18:38:37.721Z,20.33
2019-02-05T18:41:06.940Z,24.97
2019-02-05T18:43:36.594Z,22.10
2019-02-05T18:46:05.839Z,23.13
2019-02-05T18:48:35.004Z,21.53
2019-02-05T18:51:04.173Z,23.33
2019-02-05T18:53:33.350Z,19.97
2019-02-05T18:56:02.532Z,19.70
2019-02-05T18:58:32.140Z,25.13
2019-02-05T19:01:01.358Z,23.50
2019-02-05T19:03:30.549Z,25.00
2019-02-05T19:05:59.690Z,21.37
2019-02-05T19:08:28.853Z,20.93
2019-02-05T19:10:58.069Z,24.20
2019-02-05T19:13:27.758Z,57.27
2019-02-05T19:15:56.899Z,101.83
2019-02-05T19:18:26.152Z,32.10
2019-02-05T19:20:55.397Z,24.33
2019-02-05T19:23:24.628Z,29.50
2019-02-05T19:25:59.733Z,35.43
2019-02-05T19:28:39.431Z,27.73
2019-02-05T19:31:36.944Z,30.40
2019-02-05T19:34:06.262Z,29.57
2019-02-05T19:36:35.458Z,29.03
2019-02-05T19:39:07.411Z,32.60
2019-02-05T19:41:36.572Z,31.33
2019-02-05T19:44:06.148Z,30.30
2019-02-05T19:46:57.625Z,32.90
2019-02-05T19:49:30.191Z,32.63
2019-02-05T19:51:59.505Z,38.00
2019-02-05T19:54:29.233Z,54.57
2019-02-05T19:56:58.397Z,60.20
2019-02-05T19:59:28.029Z,36.13
2019-02-05T20:01:57.205Z,37.27
2019-02-05T20:04:26.776Z,31.47
2019-02-05T20:06:56.116Z,31.70
2019-02-05T20:09:25.445Z,33.50
2019-02-05T20:11:54.870Z,30.77
2019-02-05T20:14:24.116Z,32.70
2019-02-05T20:16:53.512Z,35.93
2019-02-05T20:19:24.838Z,33.43
2019-02-05T20:21:54.386Z,30.70
2019-02-05T20:24:23.628Z,35.63
2019-02-05T20:26:52.913Z,33.73
2019-02-05T20:29:22.431Z,37.43
2019-02-05T20:31:51.659Z,36.67
2019-02-05T20:34:20.781Z,36.30
2019-02-05T20:36:50.027Z,33.07
2019-02-05T20:39:19.530Z,39.20
2019-02-05T20:41:48.943Z,39.13
2019-02-05T20:44:18.321Z,42.43
2019-02-05T20:46:47.493Z,39.77
2019-02-05T20:49:16.675Z,40.03
2019-02-05T20:51:46.232Z,30.47
2019-02-05T20:54:18.524Z,31.57
2019-02-05T20:56:46.380Z,31.27
2019-02-05T20:59:15.632Z,33.00
2019-02-05T21:01:44.884Z,30.87
2019-02-05T21:04:14.080Z,33.40
2019-02-05T21:06:43.338Z,32.50
2019-02-05T21:09:17.616Z,33.13
2019-02-05T21:11:47.038Z,32.40
2019-02-05T21:14:16.605Z,32.57
2019-02-05T21:16:46.061Z,31.40
2019-02-05T21:19:15.252Z,34.67
2019-02-05T21:21:44.486Z,32.50
2019-02-05T21:24:13.735Z,35.00
2019-02-05T21:26:42.885Z,34.67
2019-02-05T21:29:13.264Z,29.40
2019-02-05T21:31:42.532Z,37.37
2019-02-05T21:34:16.024Z,75.33
2019-02-05T21:36:42.617Z,53.00
2019-02-05T21:39:12.799Z,31.80
2019-02-05T21:41:41.964Z,30.90
2019-02-05T21:44:11.169Z,32.70
2019-02-05T21:46:40.333Z,33.87
2019-02-05T21:49:09.524Z,27.77
2019-02-05T21:51:41.642Z,30.60
2019-02-05T21:54:09.881Z,30.37
2019-02-05T21:56:39.065Z,32.40
2019-02-05T21:59:08.327Z,28.33
2019-02-05T22:01:37.662Z,32.03
2019-02-05T22:04:06.882Z,29.67
2019-02-05T22:06:36.199Z,28.60
2019-02-05T22:09:10.745Z,31.70
2019-02-05T22:11:41.026Z,28.60
2019-02-05T22:14:10.758Z,30.20
2019-02-05T22:16:39.915Z,33.10
2019-02-05T22:19:09.737Z,30.50
2019-02-05T22:21:39.072Z,29.77
2019-02-05T22:24:08.224Z,30.67
2019-02-05T22:26:37.556Z,31.30
2019-02-05T22:29:07.270Z,31.77
2019-02-05T22:31:36.512Z,30.97
2019-02-05T22:34:06.248Z,34.67
2019-02-05T22:36:35.423Z,32.83
2019-02-05T22:39:07.827Z,29.27
2019-02-05T22:41:37.047Z,37.80
2019-02-05T22:44:06.760Z,32.47
2019-02-05T22:46:36.134Z,33.67
2019-02-05T22:49:05.657Z,32.87
2019-02-05T22:51:35.008Z,32.63
2019-02-05T22:54:04.781Z,29.80
2019-02-05T22:56:34.000Z,34.47
2019-02-05T22:59:03.452Z,28.77
2019-02-05T23:01:59.825Z,30.87
2019-02-05T23:05:16.743Z,32.77
2019-02-05T23:07:46.341Z,30.57
2019-02-05T23:10:39.561Z,29.77
2019-02-05T23:13:17.068Z,32.57
2019-02-05T23:15:48.491Z,29.63
2019-02-05T23:18:17.666Z,31.90
2019-02-05T23:20:46.814Z,31.70
2019-02-05T23:23:16.432Z,32.60
2019-02-05T23:25:45.599Z,33.47
2019-02-05T23:28:14.821Z,33.60
2019-02-05T23:30:44.288Z,35.17
2019-02-05T23:33:13.733Z,32.17
2019-02-05T23:35:42.917Z,34.20
2019-02-05T23:38:12.244Z,32.50
2019-02-05T23:40:41.437Z,30.80
2019-02-05T23:43:10.794Z,34.10
2019-02-05T23:45:39.954Z,36.20
2019-02-05T23:48:09.389Z,33.70
2019-02-05T23:50:38.565Z,37.03
2019-02-05T23:53:07.775Z,34.13
2019-02-05T23:55:36.956Z,32.30
2019-02-05T23:58:06.395Z,31.53
